createdAt,value
2022-08-28T00:01:57.190Z,12.63
2022-08-28T00:04:23.563Z,14.93
2022-08-28T00:06:49.924Z,16.27
2022-08-28T00:09:16.491Z,16.67
2022-08-28T00:11:43.107Z,11.77
2022-08-28T00:14:10.893Z,13.10
2022-08-28T00:16:38.479Z,16.20
2022-08-28T00:19:05.315Z,15.00
2022-08-28T00:21:33.099Z,15.30
2022-08-28T00:24:00.673Z,16.57
2022-08-28T00:26:53.275Z,21.40
2022-08-28T00:29:19.656Z,14.93
2022-08-28T00:31:46.413Z,14.30
2022-08-28T00:34:12.987Z,13.87
2022-08-28T00:36:40.176Z,13.70
2022-08-28T00:39:08.435Z,16.27
2022-08-28T00:41:35.602Z,16.33
2022-08-28T00:44:18.600Z,14.97
2022-08-28T00:46:48.005Z,14.13
2022-08-28T00:49:19.108Z,19.60
2022-08-28T00:52:05.490Z,16.03
2022-08-28T00:54:34.466Z,15.13
2022-08-28T00:57:04.241Z,16.57
2022-08-28T00:59:30.657Z,17.60
2022-08-28T01:01:59.048Z,16.43
2022-08-28T01:04:28.347Z,18.93
2022-08-28T01:06:57.498Z,21.43
2022-08-28T01:09:28.003Z,18.17
2022-08-28T01:11:59.026Z,17.50
2022-08-28T01:14:26.820Z,19.50
2022-08-28T01:16:57.876Z,20.13
2022-08-28T01:19:33.183Z,18.37
2022-08-28T01:22:18.172Z,16.80
2022-08-28T01:24:46.086Z,21.03
2022-08-28T01:27:12.753Z,17.00
2022-08-28T01:29:39.543Z,25.90
2022-08-28T01:32:06.100Z,13.57
2022-08-28T01:34:35.383Z,17.97
2022-08-28T01:37:03.697Z,20.03
2022-08-28T01:39:30.278Z,17.77
2022-08-28T01:41:59.418Z,17.93
2022-08-28T01:44:27.997Z,17.23
2022-08-28T01:46:57.557Z,24.10
2022-08-28T01:49:25.158Z,19.27
2022-08-28T01:51:52.339Z,20.03
2022-08-28T01:54:21.304Z,18.77
2022-08-28T01:56:47.705Z,20.13
2022-08-28T01:59:15.317Z,24.07
2022-08-28T02:01:43.382Z,26.47
2022-08-28T02:04:11.199Z,20.60
2022-08-28T02:06:38.175Z,26.83
2022-08-28T02:09:06.920Z,25.67
2022-08-28T02:11:42.992Z,25.43
2022-08-28T02:14:12.674Z,21.47
2022-08-28T02:16:39.012Z,22.73
2022-08-28T02:19:06.040Z,23.33
2022-08-28T02:21:32.484Z,23.73
2022-08-28T02:23:58.990Z,21.90
2022-08-28T02:26:26.040Z,20.87
2022-08-28T02:28:52.371Z,25.07
2022-08-28T02:31:18.763Z,25.47
2022-08-28T02:33:45.335Z,22.17
2022-08-28T02:36:14.630Z,24.27
2022-08-28T02:38:41.733Z,24.83
2022-08-28T02:41:08.716Z,24.60
2022-08-28T02:43:35.555Z,22.97
2022-08-28T02:46:02.823Z,23.53
2022-08-28T02:48:35.491Z,20.20
2022-08-28T02:51:08.938Z,26.40
2022-08-28T02:53:36.258Z,21.47
2022-08-28T02:56:04.312Z,24.87
2022-08-28T02:58:32.694Z,22.50
2022-08-28T03:01:01.676Z,23.80
2022-08-28T03:03:31.127Z,26.20
2022-08-28T03:05:59.735Z,24.03
2022-08-28T03:08:27.403Z,28.50
2022-08-28T03:10:54.186Z,22.07
2022-08-28T03:13:23.120Z,21.60
2022-08-28T03:15:55.983Z,23.53
2022-08-28T03:18:23.974Z,28.80
2022-08-28T03:20:50.313Z,24.27
2022-08-28T03:23:28.741Z,20.77
2022-08-28T03:26:02.794Z,23.47
2022-08-28T03:28:33.421Z,27.93
2022-08-28T03:31:00.691Z,24.10
2022-08-28T03:33:28.058Z,26.37
2022-08-28T03:35:55.412Z,24.03
2022-08-28T03:38:22.220Z,35.83
2022-08-28T03:40:50.613Z,26.17
2022-08-28T03:43:19.699Z,29.33
2022-08-28T03:45:58.678Z,31.80
2022-08-28T03:48:27.803Z,26.57
2022-08-28T03:50:54.895Z,26.77
2022-08-28T03:53:23.543Z,30.20
2022-08-28T03:55:49.927Z,28.53
2022-08-28T03:58:18.911Z,27.60
2022-08-28T04:00:46.013Z,26.50
2022-08-28T04:03:12.503Z,30.97
2022-08-28T04:05:43.003Z,29.60
2022-08-28T04:08:12.592Z,25.77
2022-08-28T04:10:39.129Z,32.03
2022-08-28T04:13:05.460Z,24.90
2022-08-28T04:15:31.850Z,35.17
2022-08-28T04:17:59.132Z,27.20
2022-08-28T04:20:26.349Z,27.47
2022-08-28T04:22:55.266Z,29.40
2022-08-28T04:25:22.519Z,30.53
2022-08-28T04:27:50.189Z,28.57
2022-08-28T04:30:16.761Z,27.53
2022-08-28T04:32:43.123Z,30.13
2022-08-28T04:35:12.158Z,25.90
2022-08-28T04:37:39.818Z,26.60
2022-08-28T04:40:09.774Z,27.40
2022-08-28T04:42:37.983Z,30.03
2022-08-28T04:45:06.275Z,28.47
2022-08-28T04:47:36.984Z,26.77
2022-08-28T04:50:05.259Z,30.23
2022-08-28T04:52:31.622Z,28.10
2022-08-28T04:54:58.055Z,27.43
2022-08-28T04:57:25.328Z,26.27
2022-08-28T04:59:51.680Z,29.90
2022-08-28T05:02:18.064Z,29.40
2022-08-28T05:04:44.424Z,27.93
2022-08-28T05:07:10.767Z,31.37
2022-08-28T05:09:37.146Z,32.33
2022-08-28T05:12:05.639Z,29.80
2022-08-28T05:14:32.107Z,22.57
2022-08-28T05:16:58.546Z,31.20
2022-08-28T05:19:27.666Z,32.20
2022-08-28T05:21:54.044Z,25.73
2022-08-28T05:24:21.206Z,27.70
2022-08-28T05:26:48.150Z,26.47
2022-08-28T05:29:16.539Z,26.43
2022-08-28T05:31:42.956Z,26.30
2022-08-28T05:34:10.488Z,23.17
2022-08-28T05:36:38.359Z,22.90
2022-08-28T05:39:08.706Z,29.40
2022-08-28T05:41:35.790Z,26.93
2022-08-28T05:44:06.027Z,28.60
2022-08-28T05:46:34.297Z,29.20
2022-08-28T05:49:00.724Z,23.73
2022-08-28T05:51:28.018Z,25.90
2022-08-28T05:53:57.375Z,27.03
2022-08-28T05:56:27.150Z,26.80
2022-08-28T05:58:53.483Z,28.60
2022-08-28T06:01:31.775Z,24.07
2022-08-28T06:04:01.327Z,20.90
2022-08-28T06:06:29.959Z,25.90
2022-08-28T06:08:59.343Z,22.17
2022-08-28T06:11:30.362Z,29.33
2022-08-28T06:13:59.703Z,24.07
2022-08-28T06:16:28.685Z,22.70
2022-08-28T06:18:55.914Z,22.03
2022-08-28T06:21:22.242Z,19.17
2022-08-28T06:23:48.570Z,22.93
2022-08-28T06:26:14.965Z,23.23
2022-08-28T06:28:41.310Z,19.53
2022-08-28T06:31:23.665Z,19.83
2022-08-28T06:33:53.928Z,25.03
2022-08-28T06:36:20.382Z,22.37
2022-08-28T06:38:46.809Z,18.80
2022-08-28T06:41:14.911Z,24.80
2022-08-28T06:43:41.769Z,18.20
2022-08-28T06:46:08.190Z,22.90
2022-08-28T06:48:34.799Z,22.10
2022-08-28T06:51:01.167Z,20.90
2022-08-28T06:53:30.487Z,22.70
2022-08-28T06:55:58.353Z,23.70
2022-08-28T06:58:25.122Z,31.27
2022-08-28T07:00:59.655Z,22.20
2022-08-28T07:03:30.397Z,22.27
2022-08-28T07:05:58.710Z,25.50
2022-08-28T07:08:26.194Z,21.77
2022-08-28T07:10:53.944Z,20.93
2022-08-28T07:13:21.593Z,20.83
2022-08-28T07:15:48.824Z,25.70
2022-08-28T07:18:15.881Z,22.67
2022-08-28T07:20:42.460Z,21.93
2022-08-28T07:23:09.477Z,21.13
2022-08-28T07:25:40.423Z,25.60
2022-08-28T07:28:07.847Z,22.93
2022-08-28T07:30:34.216Z,21.70
2022-08-28T07:33:00.575Z,22.10
2022-08-28T07:35:27.287Z,24.47
2022-08-28T07:37:53.631Z,20.30
2022-08-28T07:40:22.137Z,26.13
2022-08-28T07:43:07.005Z,28.40
2022-08-28T07:45:33.974Z,24.10
2022-08-28T07:48:00.370Z,22.27
2022-08-28T07:50:26.711Z,32.57
2022-08-28T07:52:53.175Z,27.00
2022-08-28T07:55:19.547Z,25.93
2022-08-28T07:57:48.292Z,26.87
2022-08-28T08:00:14.957Z,25.27
2022-08-28T08:02:43.132Z,24.53
2022-08-28T08:05:10.552Z,25.93
2022-08-28T08:07:41.908Z,22.20
2022-08-28T08:10:14.788Z,26.20
2022-08-28T08:12:45.287Z,24.10
2022-08-28T08:15:12.800Z,19.73
2022-08-28T08:17:39.291Z,25.23
2022-08-28T08:20:07.522Z,24.03
2022-08-28T08:22:34.988Z,19.87
2022-08-28T08:25:04.634Z,19.60
2022-08-28T08:27:32.784Z,20.43
2022-08-28T08:29:59.630Z,21.27
2022-08-28T08:32:26.018Z,22.37
2022-08-28T08:34:55.795Z,19.07
2022-08-28T08:37:22.677Z,18.67
2022-08-28T08:39:50.585Z,19.97
2022-08-28T08:42:24.938Z,19.70
2022-08-28T08:44:53.584Z,22.87
2022-08-28T08:47:51.254Z,19.80
2022-08-28T08:50:37.215Z,18.33
2022-08-28T08:53:23.567Z,17.77
2022-08-28T08:55:54.953Z,20.87
2022-08-28T08:58:41.822Z,21.33
2022-08-28T09:01:14.253Z,18.47
2022-08-28T09:04:01.950Z,20.30
2022-08-28T09:06:56.413Z,20.53
2022-08-28T09:09:37.200Z,19.17
2022-08-28T09:12:09.895Z,19.80
2022-08-28T09:14:48.328Z,21.53
2022-08-28T09:17:18.110Z,20.53
2022-08-28T09:19:44.488Z,22.53
2022-08-28T09:22:10.924Z,18.33
2022-08-28T09:24:40.222Z,20.27
2022-08-28T09:27:25.937Z,23.73
2022-08-28T09:30:07.424Z,20.73
2022-08-28T09:32:41.568Z,20.87
2022-08-28T09:35:12.793Z,19.00
2022-08-28T09:37:40.404Z,21.23
2022-08-28T09:40:14.381Z,18.43
2022-08-28T09:42:59.401Z,23.30
2022-08-28T09:45:28.918Z,20.33
2022-08-28T09:47:57.088Z,18.70
2022-08-28T09:50:36.800Z,17.03
2022-08-28T09:53:09.315Z,22.73
2022-08-28T09:55:35.634Z,18.87
2022-08-28T09:58:03.354Z,28.63
2022-08-28T10:00:37.272Z,17.63
2022-08-28T10:03:19.936Z,17.63
2022-08-28T10:06:14.210Z,21.23
2022-08-28T10:09:02.616Z,20.27
2022-08-28T10:11:38.584Z,21.37
2022-08-28T10:14:32.857Z,15.37
2022-08-28T10:17:34.166Z,15.63
2022-08-28T10:20:24.728Z,16.93
2022-08-28T10:23:12.469Z,15.93
2022-08-28T10:26:09.481Z,15.20
2022-08-28T10:28:44.940Z,19.27
2022-08-28T10:31:25.925Z,21.23
2022-08-28T10:34:06.902Z,19.17
2022-08-28T10:36:35.327Z,22.60
2022-08-28T10:39:32.258Z,108.43
2022-08-28T10:42:03.028Z,48.93
2022-08-28T10:44:53.313Z,20.00
2022-08-28T10:47:22.463Z,17.87
2022-08-28T10:50:01.723Z,21.27
2022-08-28T10:52:35.919Z,20.13
2022-08-28T10:55:32.425Z,20.90
2022-08-28T10:58:24.350Z,15.60
2022-08-28T11:00:56.871Z,17.13
2022-08-28T11:03:34.908Z,14.07
2022-08-28T11:06:12.903Z,14.03
2022-08-28T11:08:40.008Z,13.70
2022-08-28T11:11:13.326Z,14.23
2022-08-28T11:13:52.275Z,14.20
2022-08-28T11:16:30.297Z,14.60
2022-08-28T11:19:06.249Z,11.87
2022-08-28T11:21:50.905Z,11.30
2022-08-28T11:24:38.513Z,12.57
2022-08-28T11:27:20.847Z,13.83
2022-08-28T11:30:05.493Z,17.37
2022-08-28T11:32:31.976Z,10.47
2022-08-28T11:35:12.294Z,13.80
2022-08-28T11:37:43.259Z,12.20
2022-08-28T11:40:28.198Z,14.87
2022-08-28T11:43:15.911Z,15.10
2022-08-28T11:45:42.794Z,11.37
2022-08-28T11:48:28.254Z,12.03
2022-08-28T11:50:57.485Z,13.13
2022-08-28T11:53:29.387Z,15.33
2022-08-28T11:56:33.359Z,12.13
2022-08-28T11:59:18.530Z,12.90
2022-08-28T12:01:45.323Z,11.27
2022-08-28T12:04:15.170Z,11.43
2022-08-28T12:06:44.531Z,14.03
2022-08-28T12:09:13.040Z,8.87
2022-08-28T12:11:41.939Z,13.70
2022-08-28T12:14:26.255Z,9.30
2022-08-28T12:16:58.631Z,10.57
2022-08-28T12:19:59.007Z,12.10
2022-08-28T12:22:39.939Z,13.13
2022-08-28T12:25:15.266Z,12.87
2022-08-28T12:27:41.858Z,14.40
2022-08-28T12:30:08.510Z,11.37
2022-08-28T12:32:46.079Z,14.10
2022-08-28T12:35:22.674Z,11.00
2022-08-28T12:37:53.341Z,11.93
2022-08-28T12:40:23.924Z,13.03
2022-08-28T12:43:01.715Z,13.17
2022-08-28T12:45:38.055Z,9.67
2022-08-28T12:48:31.686Z,10.67
2022-08-28T12:51:05.863Z,10.17
2022-08-28T12:53:44.582Z,11.40
2022-08-28T12:56:13.659Z,14.60
2022-08-28T12:58:41.588Z,11.63
2022-08-28T13:01:16.201Z,10.37
2022-08-28T13:03:45.811Z,10.73
2022-08-28T13:06:13.294Z,10.03
2022-08-28T13:08:40.310Z,9.97
2022-08-28T13:11:07.088Z,9.37
2022-08-28T13:13:38.442Z,8.23
2022-08-28T13:16:10.613Z,13.13
2022-08-28T13:18:50.413Z,10.27
2022-08-28T13:21:33.867Z,10.90
2022-08-28T13:24:23.485Z,9.40
2022-08-28T13:26:59.255Z,11.03
2022-08-28T13:29:25.797Z,10.47
2022-08-28T13:32:02.197Z,9.67
2022-08-28T13:34:31.098Z,8.60
2022-08-28T13:37:07.311Z,10.93
2022-08-28T13:39:41.664Z,9.00
2022-08-28T13:42:11.620Z,8.57
2022-08-28T13:44:46.806Z,9.50
2022-08-28T13:47:13.863Z,9.53
2022-08-28T13:49:40.395Z,8.70
2022-08-28T13:52:07.999Z,12.80
2022-08-28T13:54:36.896Z,7.10
2022-08-28T13:57:04.352Z,8.80
2022-08-28T13:59:31.493Z,8.87
2022-08-28T14:02:20.326Z,7.53
2022-08-28T14:04:46.699Z,10.13
2022-08-28T14:07:13.990Z,8.80
2022-08-28T14:09:41.049Z,9.77
2022-08-28T14:12:09.938Z,8.27
2022-08-28T14:14:39.694Z,7.30
2022-08-28T14:17:07.223Z,7.07
2022-08-28T14:19:34.502Z,8.57
2022-08-28T14:22:00.888Z,9.47
2022-08-28T14:24:27.719Z,8.43
2022-08-28T14:26:54.310Z,9.07
2022-08-28T14:29:21.181Z,7.50
2022-08-28T14:31:48.522Z,8.40
2022-08-28T14:34:17.946Z,8.70
2022-08-28T14:36:44.477Z,10.63
2022-08-28T14:39:13.175Z,9.10
2022-08-28T14:41:46.876Z,8.90
2022-08-28T14:44:13.741Z,8.53
2022-08-28T14:46:44.060Z,7.83
2022-08-28T14:49:14.290Z,12.60
2022-08-28T14:51:42.761Z,12.40
2022-08-28T14:54:12.743Z,10.73
2022-08-28T14:56:41.458Z,7.50
2022-08-28T14:59:18.391Z,8.97
2022-08-28T15:01:48.343Z,9.00
2022-08-28T15:04:18.034Z,12.63
2022-08-28T15:06:45.448Z,8.10
2022-08-28T15:09:14.004Z,9.80
2022-08-28T15:11:42.027Z,8.60
2022-08-28T15:14:08.843Z,9.90
2022-08-28T15:16:41.592Z,7.27
2022-08-28T15:19:12.175Z,6.60
2022-08-28T15:21:45.427Z,8.63
2022-08-28T15:24:14.082Z,10.77
2022-08-28T15:26:40.794Z,9.07
2022-08-28T15:29:07.630Z,7.80
2022-08-28T15:31:37.997Z,13.00
2022-08-28T15:34:13.519Z,17.23
2022-08-28T15:36:40.872Z,9.23
2022-08-28T15:39:27.167Z,12.20
2022-08-28T15:41:53.912Z,10.87
2022-08-28T15:44:20.330Z,16.47
2022-08-28T15:46:53.949Z,11.77
2022-08-28T15:49:23.744Z,13.00
2022-08-28T15:51:50.828Z,8.03
2022-08-28T15:54:17.486Z,14.07
2022-08-28T15:56:43.880Z,10.97
2022-08-28T15:59:11.062Z,13.37
2022-08-28T16:01:38.327Z,11.33
2022-08-28T16:04:06.520Z,10.03
2022-08-28T16:06:34.651Z,8.20
2022-08-28T16:09:01.044Z,11.03
2022-08-28T16:11:28.017Z,8.70
2022-08-28T16:14:01.277Z,8.27
2022-08-28T16:16:27.665Z,8.97
2022-08-28T16:18:54.959Z,11.80
2022-08-28T16:21:21.569Z,9.93
2022-08-28T16:23:48.787Z,18.93
2022-08-28T16:26:15.969Z,13.50
2022-08-28T16:28:44.687Z,10.47
2022-08-28T16:31:19.315Z,10.90
2022-08-28T16:33:46.932Z,10.27
2022-08-28T16:36:14.861Z,6.33
2022-08-28T16:38:43.400Z,6.97
2022-08-28T16:41:28.170Z,9.60
2022-08-28T16:43:56.247Z,8.57
2022-08-28T16:46:25.585Z,12.87
2022-08-28T16:48:53.151Z,9.60
2022-08-28T16:51:20.356Z,12.97
2022-08-28T16:53:46.990Z,14.73
2022-08-28T16:56:15.653Z,8.03
2022-08-28T16:58:43.863Z,10.60
2022-08-28T17:01:11.533Z,9.50
2022-08-28T17:03:40.111Z,6.97
2022-08-28T17:06:17.288Z,11.10
2022-08-28T17:08:44.313Z,8.17
2022-08-28T17:11:11.703Z,7.50
2022-08-28T17:13:38.753Z,10.70
2022-08-28T17:16:06.170Z,8.60
2022-08-28T17:18:32.762Z,11.27
2022-08-28T17:21:17.963Z,10.60
2022-08-28T17:23:44.468Z,7.33
2022-08-28T17:26:10.821Z,7.47
2022-08-28T17:28:37.235Z,12.00
2022-08-28T17:31:03.903Z,6.33
2022-08-28T17:33:30.702Z,7.73
2022-08-28T17:35:59.658Z,10.03
2022-08-28T17:38:26.095Z,8.13
2022-08-28T17:40:53.231Z,8.50
2022-08-28T17:43:20.458Z,10.60
2022-08-28T17:45:47.467Z,9.17
2022-08-28T17:48:16.855Z,9.77
2022-08-28T17:50:43.948Z,9.23
2022-08-28T17:53:10.312Z,10.13
2022-08-28T17:55:36.951Z,13.07
2022-08-28T17:58:03.891Z,8.80
2022-08-28T18:00:30.310Z,12.70
2022-08-28T18:02:56.663Z,9.63
2022-08-28T18:05:23.243Z,8.27
2022-08-28T18:07:49.623Z,8.73
2022-08-28T18:10:16.095Z,11.50
2022-08-28T18:12:42.528Z,8.20
2022-08-28T18:15:10.939Z,8.00
2022-08-28T18:17:38.383Z,14.30
2022-08-28T18:20:07.789Z,12.70
2022-08-28T18:22:34.196Z,14.30
2022-08-28T18:25:00.531Z,13.47
2022-08-28T18:27:28.512Z,10.63
2022-08-28T18:29:54.921Z,14.00
2022-08-28T18:32:21.672Z,14.07
2022-08-28T18:34:48.593Z,15.50
2022-08-28T18:37:15.834Z,10.10
2022-08-28T18:39:42.927Z,7.90
2022-08-28T18:42:11.010Z,12.17
2022-08-28T18:44:37.342Z,12.87
2022-08-28T18:47:03.785Z,7.57
2022-08-28T18:49:30.141Z,5.90
2022-08-28T18:51:56.588Z,6.23
2022-08-28T18:54:23.050Z,5.70
2022-08-28T18:56:50.328Z,8.07
2022-08-28T18:59:17.903Z,8.20
2022-08-28T19:01:44.416Z,9.87
2022-08-28T19:04:10.905Z,12.97
2022-08-28T19:06:37.341Z,11.67
2022-08-28T19:09:05.546Z,9.73
2022-08-28T19:11:32.020Z,13.83
2022-08-28T19:13:59.487Z,9.90
2022-08-28T19:16:31.481Z,11.90
2022-08-28T19:18:57.902Z,11.17
2022-08-28T19:21:24.410Z,7.47
2022-08-28T19:23:55.847Z,5.83
2022-08-28T19:26:25.962Z,7.57
2022-08-28T19:28:52.893Z,9.50
2022-08-28T19:31:19.369Z,9.43
2022-08-28T19:33:46.772Z,14.00
2022-08-28T19:36:13.725Z,8.93
2022-08-28T19:38:41.170Z,8.63
2022-08-28T19:41:10.248Z,12.63
2022-08-28T19:43:43.174Z,7.40
2022-08-28T19:46:18.600Z,7.60
2022-08-28T19:48:47.363Z,8.13
2022-08-28T19:51:17.582Z,9.10
2022-08-28T19:53:56.849Z,8.07
2022-08-28T19:56:26.947Z,6.63
2022-08-28T19:58:54.619Z,8.53
2022-08-28T20:01:21.023Z,7.93
2022-08-28T20:03:47.953Z,11.93
2022-08-28T20:06:14.305Z,9.33
2022-08-28T20:08:40.691Z,10.20
2022-08-28T20:11:07.142Z,11.40
2022-08-28T20:13:33.528Z,9.03
2022-08-28T20:16:04.885Z,8.50
2022-08-28T20:18:31.275Z,8.70
2022-08-28T20:20:57.612Z,9.57
2022-08-28T20:23:25.000Z,9.90
2022-08-28T20:25:51.808Z,10.37
2022-08-28T20:28:19.178Z,7.43
2022-08-28T20:30:46.690Z,10.57
2022-08-28T20:33:13.993Z,13.23
2022-08-28T20:35:40.408Z,11.80
2022-08-28T20:38:06.862Z,9.17
2022-08-28T20:40:33.569Z,9.40
2022-08-28T20:43:00.618Z,11.57
2022-08-28T20:45:28.004Z,11.47
2022-08-28T20:47:54.414Z,12.23
2022-08-28T20:50:21.028Z,9.50
2022-08-28T20:52:47.398Z,7.10
2022-08-28T20:55:14.869Z,9.17
2022-08-28T20:57:41.605Z,8.83
2022-08-28T21:00:09.724Z,11.47
2022-08-28T21:02:36.566Z,9.97
2022-08-28T21:05:04.134Z,10.80
2022-08-28T21:07:31.032Z,10.87
2022-08-28T21:10:05.029Z,6.23
2022-08-28T21:12:35.039Z,8.80
2022-08-28T21:15:01.693Z,13.87
2022-08-28T21:17:29.599Z,14.47
2022-08-28T21:19:58.721Z,9.70
2022-08-28T21:22:25.290Z,11.97
2022-08-28T21:24:51.667Z,10.80
2022-08-28T21:27:18.624Z,20.07
2022-08-28T21:29:45.873Z,8.83
2022-08-28T21:32:12.713Z,9.13
2022-08-28T21:34:39.091Z,9.77
2022-08-28T21:37:06.240Z,10.27
2022-08-28T21:39:32.631Z,9.67
2022-08-28T21:41:58.993Z,18.97
2022-08-28T21:44:25.312Z,11.57
2022-08-28T21:46:51.911Z,14.60
2022-08-28T21:49:18.331Z,17.60
2022-08-28T21:51:44.672Z,14.50
2022-08-28T21:54:11.098Z,9.23
2022-08-28T21:56:37.586Z,10.80
2022-08-28T21:59:03.961Z,8.40
2022-08-28T22:01:30.370Z,11.90
2022-08-28T22:03:57.017Z,11.13
2022-08-28T22:06:26.200Z,12.33
2022-08-28T22:08:54.150Z,9.47
2022-08-28T22:11:24.752Z,8.77
2022-08-28T22:13:51.731Z,9.17
2022-08-28T22:16:18.381Z,8.57
2022-08-28T22:18:45.120Z,11.93
2022-08-28T22:21:36.947Z,13.40
2022-08-28T22:24:03.984Z,10.10
2022-08-28T22:26:30.401Z,14.67
2022-08-28T22:28:57.113Z,13.33
2022-08-28T22:31:24.447Z,14.73
2022-08-28T22:33:51.310Z,8.30
2022-08-28T22:36:18.311Z,15.30
2022-08-28T22:38:49.730Z,12.43
2022-08-28T22:41:20.153Z,17.27
2022-08-28T22:43:48.224Z,14.80
2022-08-28T22:46:16.387Z,11.60
2022-08-28T22:48:42.891Z,10.33
2022-08-28T22:51:12.519Z,13.13
2022-08-28T22:53:41.246Z,12.07
2022-08-28T22:56:08.409Z,11.47
2022-08-28T22:58:35.247Z,10.30
2022-08-28T23:01:06.761Z,15.43
2022-08-28T23:03:33.777Z,11.47
2022-08-28T23:06:00.171Z,12.47
2022-08-28T23:08:29.633Z,19.70
2022-08-28T23:10:59.526Z,19.67
2022-08-28T23:13:26.478Z,12.37
2022-08-28T23:15:52.980Z,16.43
2022-08-28T23:18:20.242Z,15.17
2022-08-28T23:20:46.616Z,17.40
2022-08-28T23:23:16.960Z,12.10
2022-08-28T23:25:43.781Z,23.00
2022-08-28T23:28:10.385Z,16.63
2022-08-28T23:30:38.752Z,14.97
2022-08-28T23:33:08.394Z,20.17
2022-08-28T23:35:35.889Z,24.70
2022-08-28T23:38:03.848Z,15.83
2022-08-28T23:40:30.537Z,18.33
2022-08-28T23:42:57.926Z,15.90
2022-08-28T23:45:26.246Z,13.07
2022-08-28T23:47:53.840Z,19.53
2022-08-28T23:50:22.493Z,14.07
2022-08-28T23:52:49.802Z,15.93
2022-08-28T23:55:18.495Z,18.70
2022-08-28T23:57:45.787Z,12.60
